createdAt,value
2023-02-14T00:01:11.257Z,13.50
2023-02-14T00:03:38.910Z,13.55
2023-02-14T00:06:13.370Z,13.93
2023-02-14T00:08:41.318Z,12.77
2023-02-14T00:11:11.457Z,15.52
2023-02-14T00:13:38.861Z,13.73
2023-02-14T00:16:06.059Z,15.57
2023-02-14T00:18:51.796Z,14.32
2023-02-14T00:21:18.791Z,13.73
2023-02-14T00:23:46.019Z,11.23
2023-02-14T00:26:16.141Z,13.43
2023-02-14T00:28:43.433Z,13.00
2023-02-14T00:31:10.815Z,12.98
2023-02-14T00:33:38.128Z,12.77
2023-02-14T00:36:10.137Z,12.68
2023-02-14T00:38:37.252Z,12.60
2023-02-14T00:41:05.257Z,11.82
2023-02-14T00:43:32.245Z,12.55
2023-02-14T00:45:59.372Z,12.75
2023-02-14T00:48:26.540Z,12.27
2023-02-14T00:50:53.493Z,11.77
2023-02-14T00:53:20.712Z,10.80
2023-02-14T00:55:49.629Z,9.93
2023-02-14T00:58:16.573Z,10.15
2023-02-14T01:00:43.528Z,10.32
2023-02-14T01:03:10.565Z,10.30
2023-02-14T01:05:37.762Z,11.60
2023-02-14T01:08:05.269Z,12.50
2023-02-14T01:10:32.628Z,12.77
2023-02-14T01:12:59.875Z,11.85
2023-02-14T01:15:26.884Z,11.07
2023-02-14T01:17:53.871Z,10.95
2023-02-14T01:20:20.810Z,10.15
2023-02-14T01:22:47.859Z,13.35
2023-02-14T01:25:14.801Z,13.45
2023-02-14T01:27:42.057Z,12.73
2023-02-14T01:30:10.011Z,13.75
2023-02-14T01:32:37.235Z,14.07
2023-02-14T01:35:04.880Z,12.45
2023-02-14T01:37:31.927Z,12.43
2023-02-14T01:39:59.377Z,12.32
2023-02-14T01:42:26.893Z,12.27
2023-02-14T01:45:04.435Z,12.13
2023-02-14T01:47:34.963Z,11.90
2023-02-14T01:50:10.469Z,11.38
2023-02-14T01:52:51.544Z,11.30
2023-02-14T01:55:24.087Z,12.35
2023-02-14T01:58:00.067Z,10.65
2023-02-14T02:00:45.910Z,13.13
2023-02-14T02:05:47.371Z,11.27
2023-02-14T02:08:14.985Z,11.93
2023-02-14T02:10:41.928Z,11.63
2023-02-14T02:13:14.914Z,11.80
2023-02-14T02:16:07.862Z,13.13
2023-02-14T02:19:12.480Z,13.48
2023-02-14T02:22:01.149Z,12.65
2023-02-14T02:24:36.184Z,11.05
2023-02-14T02:27:19.421Z,11.35
2023-02-14T02:30:31.080Z,10.55
2023-02-14T02:33:12.992Z,10.52
2023-02-14T02:35:45.925Z,11.68
2023-02-14T02:38:18.976Z,9.50
2023-02-14T02:41:04.239Z,10.57
2023-02-14T02:43:37.228Z,10.95
2023-02-14T02:46:47.602Z,10.68
2023-02-14T02:49:52.721Z,9.30
2023-02-14T02:53:04.190Z,9.40
2023-02-14T02:55:56.964Z,9.20
2023-02-14T02:58:29.534Z,8.05
2023-02-14T03:00:58.529Z,7.07
2023-02-14T03:03:46.516Z,8.68
2023-02-14T03:06:13.562Z,10.63
2023-02-14T03:08:40.560Z,9.48
2023-02-14T03:11:07.760Z,9.43
2023-02-14T03:13:40.648Z,9.00
2023-02-14T03:16:27.303Z,9.35
2023-02-14T03:19:03.250Z,9.18
2023-02-14T03:21:39.570Z,9.13
2023-02-14T03:24:25.712Z,9.63
2023-02-14T03:27:15.191Z,9.35
2023-02-14T03:29:45.315Z,9.55
2023-02-14T03:32:46.882Z,7.38
2023-02-14T03:35:32.746Z,7.63
2023-02-14T03:40:42.609Z,8.57
2023-02-14T03:43:35.874Z,8.02
2023-02-14T03:46:35.729Z,9.18
2023-02-14T03:49:09.391Z,8.68
2023-02-14T03:51:37.815Z,8.75
2023-02-14T03:54:10.652Z,7.68
2023-02-14T03:56:41.139Z,9.52
2023-02-14T03:59:18.512Z,8.90
2023-02-14T04:01:54.814Z,9.77
2023-02-14T04:04:26.175Z,8.23
2023-02-14T04:06:53.679Z,9.25
2023-02-14T04:09:20.724Z,9.23
2023-02-14T04:11:50.599Z,10.45
2023-02-14T04:14:17.944Z,8.82
2023-02-14T04:17:03.577Z,8.40
2023-02-14T04:19:30.628Z,9.60
2023-02-14T04:21:57.723Z,10.35
2023-02-14T04:24:24.766Z,9.13
2023-02-14T04:26:54.529Z,10.80
2023-02-14T04:29:21.624Z,9.48
2023-02-14T04:31:48.905Z,9.25
2023-02-14T04:34:16.032Z,8.75
2023-02-14T04:36:43.018Z,9.75
2023-02-14T04:39:10.011Z,9.73
2023-02-14T04:41:37.061Z,8.23
2023-02-14T04:44:04.213Z,8.48
2023-02-14T04:46:31.195Z,8.63
2023-02-14T04:48:58.201Z,9.48
2023-02-14T04:51:27.537Z,9.18
2023-02-14T04:53:54.657Z,7.85
2023-02-14T04:56:21.798Z,9.43
2023-02-14T04:58:48.741Z,10.02
2023-02-14T05:01:16.051Z,9.20
2023-02-14T05:03:43.045Z,9.98
2023-02-14T05:06:10.083Z,9.52
2023-02-14T05:08:37.178Z,10.10
2023-02-14T05:11:04.240Z,9.98
2023-02-14T05:13:32.294Z,9.43
2023-02-14T05:15:59.984Z,8.93
2023-02-14T05:18:27.473Z,10.48
2023-02-14T05:20:55.330Z,8.13
2023-02-14T05:23:22.993Z,8.95
2023-02-14T05:25:51.981Z,8.38
2023-02-14T05:28:19.952Z,8.15
2023-02-14T05:30:47.485Z,8.35
2023-02-14T05:33:14.486Z,8.23
2023-02-14T05:35:41.500Z,8.00
2023-02-14T05:38:08.686Z,6.82
2023-02-14T05:40:35.796Z,7.75
2023-02-14T05:43:06.020Z,6.97
2023-02-14T05:45:33.220Z,6.60
2023-02-14T05:48:00.829Z,8.38
2023-02-14T05:50:29.006Z,8.13
2023-02-14T05:52:56.367Z,8.90
2023-02-14T05:55:24.841Z,8.02
2023-02-14T05:57:51.800Z,7.78
2023-02-14T06:00:19.551Z,7.03
2023-02-14T06:02:46.596Z,7.43
2023-02-14T06:05:15.075Z,7.28
2023-02-14T06:07:43.772Z,9.55
2023-02-14T06:10:11.012Z,7.95
2023-02-14T06:12:38.108Z,8.65
2023-02-14T06:15:05.462Z,10.90
2023-02-14T06:17:33.545Z,8.27
2023-02-14T06:20:01.052Z,8.63
2023-02-14T06:22:30.530Z,9.82
2023-02-14T06:24:57.746Z,9.68
2023-02-14T06:27:24.744Z,9.88
2023-02-14T06:29:51.822Z,10.77
2023-02-14T06:32:19.165Z,10.68
2023-02-14T06:34:46.188Z,10.27
2023-02-14T06:37:13.283Z,10.85
2023-02-14T06:39:40.438Z,9.25
2023-02-14T06:42:07.839Z,9.48
2023-02-14T06:44:34.786Z,9.80
2023-02-14T06:47:06.795Z,10.10
2023-02-14T06:49:33.794Z,9.15
2023-02-14T06:52:00.785Z,8.68
2023-02-14T06:54:27.884Z,11.20
2023-02-14T06:56:55.032Z,10.02
2023-02-14T06:59:22.652Z,12.55
2023-02-14T07:01:49.994Z,10.35
2023-02-14T07:04:17.964Z,12.50
2023-02-14T07:06:47.830Z,11.32
2023-02-14T07:09:18.452Z,11.85
2023-02-14T07:11:46.709Z,11.15
2023-02-14T07:14:14.293Z,12.45
2023-02-14T07:16:41.338Z,10.02
2023-02-14T07:19:09.508Z,10.95
2023-02-14T07:21:36.711Z,11.05
2023-02-14T07:24:04.478Z,14.07
2023-02-14T07:26:31.472Z,11.98
2023-02-14T07:28:58.644Z,10.63
2023-02-14T07:31:26.052Z,11.20
2023-02-14T07:33:53.424Z,11.38
2023-02-14T07:36:20.471Z,12.40
2023-02-14T07:38:47.478Z,11.90
2023-02-14T07:41:14.734Z,13.85
2023-02-14T07:43:41.712Z,12.60
2023-02-14T07:46:08.752Z,12.00
2023-02-14T07:48:36.075Z,10.70
2023-02-14T07:51:05.822Z,12.00
2023-02-14T07:53:33.027Z,12.10
2023-02-14T07:56:00.015Z,12.55
2023-02-14T07:58:27.024Z,14.63
2023-02-14T08:00:54.932Z,15.93
2023-02-14T08:03:21.924Z,18.08
2023-02-14T08:05:57.479Z,18.10
2023-02-14T08:08:29.768Z,16.48
2023-02-14T08:10:57.864Z,15.27
2023-02-14T08:13:25.010Z,17.70
2023-02-14T08:16:12.810Z,19.30
2023-02-14T08:18:41.678Z,16.25
2023-02-14T08:21:11.505Z,17.85
2023-02-14T08:23:39.270Z,18.55
2023-02-14T08:26:06.536Z,16.80
2023-02-14T08:28:35.134Z,20.00
2023-02-14T08:31:04.380Z,20.63
2023-02-14T08:33:31.635Z,21.80
2023-02-14T08:35:58.668Z,22.95
2023-02-14T08:38:25.733Z,20.45
2023-02-14T08:40:52.930Z,23.45
2023-02-14T08:43:20.334Z,22.85
2023-02-14T08:45:48.658Z,23.90
2023-02-14T08:48:15.654Z,22.52
2023-02-14T08:50:42.904Z,20.48
2023-02-14T08:53:11.953Z,22.40
2023-02-14T08:55:39.652Z,21.98
2023-02-14T08:58:07.631Z,26.33
2023-02-14T09:00:35.091Z,22.52
2023-02-14T09:03:02.387Z,22.83
2023-02-14T09:05:30.662Z,22.30
2023-02-14T09:07:57.756Z,23.33
2023-02-14T09:10:25.853Z,23.30
2023-02-14T09:12:52.932Z,21.98
2023-02-14T09:15:20.147Z,19.38
2023-02-14T09:17:47.536Z,19.75
2023-02-14T09:20:15.934Z,21.65
2023-02-14T09:22:43.636Z,22.63
2023-02-14T09:25:11.508Z,23.63
2023-02-14T09:27:39.206Z,23.85
2023-02-14T09:30:09.604Z,23.95
2023-02-14T09:32:36.674Z,21.88
2023-02-14T09:35:08.492Z,23.77
2023-02-14T09:37:54.329Z,24.17
2023-02-14T09:43:10.073Z,24.30
2023-02-14T09:45:38.562Z,24.70
2023-02-14T09:48:28.111Z,25.13
2023-02-14T09:51:00.248Z,21.70
2023-02-14T09:53:36.296Z,25.02
2023-02-14T09:56:19.651Z,26.17
2023-02-14T09:59:02.133Z,23.02
2023-02-14T10:01:54.755Z,24.70
2023-02-14T10:04:42.770Z,22.95
2023-02-14T10:07:15.804Z,23.00
2023-02-14T10:13:48.870Z,22.20
2023-02-14T10:16:27.108Z,21.60
2023-02-14T10:19:12.401Z,23.58
2023-02-14T10:21:48.716Z,21.05
2023-02-14T10:24:30.202Z,22.50
2023-02-14T10:29:45.495Z,23.05
2023-02-14T10:32:18.858Z,22.42
2023-02-14T10:34:46.112Z,20.85
2023-02-14T10:37:30.911Z,21.27
2023-02-14T10:40:09.823Z,23.08
2023-02-14T10:43:18.361Z,23.10
2023-02-14T10:45:54.384Z,25.35
2023-02-14T10:48:36.705Z,24.02
2023-02-14T10:51:17.473Z,25.52
2023-02-14T10:53:59.324Z,22.95
2023-02-14T10:57:07.321Z,25.95
2023-02-14T10:59:38.873Z,24.23
2023-02-14T11:02:11.093Z,23.95
2023-02-14T11:04:38.604Z,36.58
2023-02-14T11:07:15.733Z,32.47
2023-02-14T11:09:42.936Z,25.45
2023-02-14T11:12:10.497Z,35.13
2023-02-14T11:14:39.689Z,119.75
2023-02-14T11:17:30.012Z,44.10
2023-02-14T11:20:23.094Z,28.50
2023-02-14T11:22:50.700Z,25.52
2023-02-14T11:25:31.927Z,25.17
2023-02-14T11:28:08.545Z,26.40
2023-02-14T11:30:46.681Z,25.70
2023-02-14T11:33:31.007Z,25.90
2023-02-14T11:35:58.668Z,26.65
2023-02-14T11:38:27.917Z,27.88
2023-02-14T11:40:57.457Z,24.77
2023-02-14T11:43:33.579Z,27.23
2023-02-14T11:46:21.566Z,26.38
2023-02-14T11:48:57.885Z,26.73
2023-02-14T11:51:35.640Z,26.20
2023-02-14T11:54:05.901Z,24.88
2023-02-14T11:57:02.106Z,25.30
2023-02-14T11:59:31.946Z,24.52
2023-02-14T12:02:02.941Z,27.00
2023-02-14T12:04:45.693Z,25.00
2023-02-14T12:07:16.787Z,25.27
2023-02-14T12:09:44.503Z,24.88
2023-02-14T12:12:24.048Z,23.63
2023-02-14T12:14:51.303Z,24.50
2023-02-14T12:17:33.852Z,25.52
2023-02-14T12:20:19.698Z,28.58
2023-02-14T12:25:23.006Z,28.15
2023-02-14T12:28:03.769Z,26.77
2023-02-14T12:30:34.034Z,30.20
2023-02-14T12:33:02.923Z,31.00
2023-02-14T12:35:42.371Z,30.05
2023-02-14T12:38:18.367Z,30.73
2023-02-14T12:40:54.524Z,32.63
2023-02-14T12:44:06.841Z,32.13
2023-02-14T12:46:49.301Z,33.47
2023-02-14T12:49:36.259Z,35.17
2023-02-14T12:52:21.889Z,32.65
2023-02-14T12:55:19.869Z,33.00
2023-02-14T12:57:56.687Z,32.75
2023-02-14T13:00:50.203Z,35.05
2023-02-14T13:03:56.373Z,34.83
2023-02-14T13:06:29.512Z,38.75
2023-02-14T13:09:37.823Z,38.60
2023-02-14T13:12:13.470Z,36.85
2023-02-14T13:15:12.107Z,34.75
2023-02-14T13:17:50.878Z,37.03
2023-02-14T13:20:45.682Z,36.63
2023-02-14T13:23:19.226Z,35.40
2023-02-14T13:25:51.963Z,36.28
2023-02-14T13:28:20.341Z,32.20
2023-02-14T13:30:47.763Z,34.05
2023-02-14T13:33:27.186Z,35.45
2023-02-14T13:35:58.482Z,34.95
2023-02-14T13:38:27.298Z,34.72
2023-02-14T13:40:56.861Z,33.38
2023-02-14T13:43:50.783Z,36.53
2023-02-14T13:46:48.481Z,37.05
2023-02-14T13:49:24.380Z,35.50
2023-02-14T13:52:02.916Z,38.38
2023-02-14T13:54:49.014Z,37.20
2023-02-14T13:57:37.561Z,36.65
2023-02-14T14:00:19.483Z,36.28
2023-02-14T14:02:48.832Z,36.40
2023-02-14T14:05:47.668Z,36.47
2023-02-14T14:08:39.629Z,37.65
2023-02-14T14:11:21.375Z,36.63
2023-02-14T14:13:54.918Z,34.70
2023-02-14T14:16:26.871Z,35.72
2023-02-14T14:19:22.202Z,36.17
2023-02-14T14:22:10.849Z,35.88
2023-02-14T14:24:50.997Z,34.58
2023-02-14T14:27:19.990Z,36.95
2023-02-14T14:29:56.988Z,36.03
2023-02-14T14:32:36.403Z,36.10
2023-02-14T14:35:03.357Z,40.50
2023-02-14T14:37:51.898Z,38.92
2023-02-14T14:40:32.372Z,35.65
2023-02-14T14:43:06.678Z,37.05
2023-02-14T14:45:33.884Z,38.33
2023-02-14T14:48:09.935Z,37.45
2023-02-14T14:50:37.376Z,37.83
2023-02-14T14:53:09.623Z,36.08
2023-02-14T14:55:39.632Z,38.40
2023-02-14T14:58:27.466Z,38.85
2023-02-14T15:00:54.529Z,40.83
2023-02-14T15:03:25.556Z,40.40
2023-02-14T15:06:15.438Z,43.33
2023-02-14T15:08:42.706Z,41.63
2023-02-14T15:11:44.909Z,37.30
2023-02-14T15:14:21.273Z,38.50
2023-02-14T15:17:06.789Z,39.53
2023-02-14T15:19:44.297Z,37.63
2023-02-14T15:22:47.492Z,39.42
2023-02-14T15:25:23.655Z,36.40
2023-02-14T15:27:51.236Z,37.50
2023-02-14T15:30:26.756Z,39.30
2023-02-14T15:40:59.521Z,38.28
2023-02-14T15:43:34.081Z,37.70
2023-02-14T15:46:16.083Z,37.88
2023-02-14T15:48:44.592Z,43.55
2023-02-14T15:51:24.754Z,40.10
2023-02-14T15:54:02.797Z,37.88
2023-02-14T15:56:33.631Z,41.65
2023-02-14T15:59:05.592Z,41.17
2023-02-14T16:01:34.693Z,45.33
2023-02-14T16:04:04.283Z,41.78
2023-02-14T16:06:35.016Z,39.13
2023-02-14T16:09:05.508Z,38.45
2023-02-14T16:11:36.132Z,40.75
2023-02-14T16:14:31.590Z,37.17
2023-02-14T16:17:13.225Z,44.55
2023-02-14T16:19:45.707Z,58.50
2023-02-14T16:22:25.132Z,56.78
2023-02-14T16:24:52.095Z,49.13
2023-02-14T16:27:19.172Z,45.92
2023-02-14T16:29:46.216Z,40.25
2023-02-14T16:32:19.115Z,39.20
2023-02-14T16:34:49.496Z,41.72
2023-02-14T16:37:46.581Z,37.85
2023-02-14T16:40:15.775Z,45.13
2023-02-14T16:42:43.807Z,50.05
2023-02-14T16:45:18.369Z,47.22
2023-02-14T16:47:48.867Z,42.73
2023-02-14T16:50:16.619Z,41.63
2023-02-14T16:52:47.859Z,43.28
2023-02-14T16:55:18.076Z,44.97
2023-02-14T16:57:49.939Z,46.97
2023-02-14T17:00:18.054Z,43.30
2023-02-14T17:02:45.231Z,45.03
2023-02-14T17:05:12.323Z,43.35
2023-02-14T17:07:42.941Z,45.05
2023-02-14T17:10:19.625Z,46.55
2023-02-14T17:12:48.971Z,43.92
2023-02-14T17:15:20.372Z,45.72
2023-02-14T17:17:49.368Z,46.08
2023-02-14T17:20:19.613Z,49.75
2023-02-14T17:22:46.722Z,52.17
2023-02-14T17:25:14.389Z,51.58
2023-02-14T17:27:44.190Z,52.97
2023-02-14T17:30:12.772Z,53.40
2023-02-14T17:32:39.822Z,50.92
2023-02-14T17:35:09.170Z,50.63
2023-02-14T17:37:37.352Z,49.15
2023-02-14T17:40:06.079Z,50.60
2023-02-14T17:42:34.410Z,52.42
2023-02-14T17:45:02.067Z,55.47
2023-02-14T17:47:29.890Z,67.93
2023-02-14T17:49:57.443Z,58.08
2023-02-14T17:52:24.800Z,57.35
2023-02-14T17:54:51.996Z,60.60
2023-02-14T17:57:19.040Z,56.00
2023-02-14T17:59:47.015Z,57.03
2023-02-14T18:02:14.058Z,51.45
2023-02-14T18:04:41.155Z,54.65
2023-02-14T21:15:40.256Z,34.53
2023-02-14T21:18:07.770Z,34.10
2023-02-14T21:20:35.655Z,41.33
2023-02-14T21:23:04.505Z,41.78
2023-02-14T21:25:32.572Z,38.58
2023-02-14T21:27:59.514Z,33.83
2023-02-14T21:30:31.028Z,33.47
2023-02-14T21:33:00.473Z,34.00
2023-02-14T21:35:27.463Z,32.22
2023-02-14T21:37:54.460Z,34.42
2023-02-14T21:40:22.654Z,31.70
2023-02-14T21:42:50.704Z,29.63
2023-02-14T21:45:41.821Z,31.30
2023-02-14T21:48:27.348Z,30.25
2023-02-14T21:50:54.344Z,29.67
2023-02-14T21:53:21.389Z,28.30
2023-02-14T21:55:48.539Z,27.13
2023-02-14T21:58:15.583Z,24.70
2023-02-14T22:00:46.731Z,27.67
2023-02-14T22:03:13.782Z,28.13
2023-02-14T22:05:40.715Z,24.95
2023-02-14T22:08:07.913Z,25.52
2023-02-14T22:10:34.862Z,25.70
2023-02-14T22:13:02.779Z,28.60
2023-02-14T22:15:29.722Z,27.80
2023-02-14T22:17:56.769Z,28.40
2023-02-14T22:20:23.814Z,30.27
2023-02-14T22:22:50.808Z,27.80
2023-02-14T22:25:18.009Z,26.30
2023-02-14T22:27:45.001Z,25.13
2023-02-14T22:30:12.335Z,25.95
2023-02-14T22:32:39.450Z,25.58
2023-02-14T22:35:07.012Z,27.60
2023-02-14T22:37:34.084Z,25.50
2023-02-14T22:40:01.005Z,24.73
2023-02-14T22:42:28.124Z,20.83
2023-02-14T22:44:55.196Z,21.45
2023-02-14T22:47:22.140Z,18.75
2023-02-14T22:49:49.909Z,19.67
2023-02-14T22:52:16.959Z,19.70
2023-02-14T22:54:44.051Z,21.27
2023-02-14T22:57:11.044Z,21.27
2023-02-14T22:59:40.170Z,19.83
2023-02-14T23:02:07.343Z,20.45
2023-02-14T23:04:34.334Z,20.13
2023-02-14T23:07:01.379Z,21.77
2023-02-14T23:09:29.090Z,21.65
2023-02-14T23:11:56.068Z,21.58
2023-02-14T23:18:18.986Z,20.40
2023-02-14T23:21:04.794Z,22.70
2023-02-14T23:26:00.677Z,20.10
2023-02-14T23:28:28.854Z,20.45
2023-02-14T23:31:01.409Z,18.48
2023-02-14T23:33:28.482Z,19.50
2023-02-14T23:35:55.474Z,18.85
2023-02-14T23:38:22.671Z,17.52
2023-02-14T23:41:08.475Z,15.80
2023-02-14T23:46:02.792Z,18.60
2023-02-14T23:48:31.038Z,16.58
2023-02-14T23:51:01.279Z,16.13
2023-02-14T23:54:05.829Z,16.48
2023-02-14T23:56:33.592Z,14.98
2023-02-14T23:59:00.587Z,14.75
